Terminal Aerodrome Forecast
Issued by NWS Mt. Holly, NJ

Home | Current Version | Previous Version | Text Only | Print | Product List | Glossary On
Versions: 1 2 3 4 5 6 7 8 9 10 11 12 13 14 15 16 17 18 19 20 21 22 23 24
000
FTUS41 KPHI 240323 AAB
TAFACY
TAF AMD
KACY 240323Z 2403/2424 07006KT P6SM BKN090
      TEMPO 2404/2408 3SM -RA BR BKN015
     FM240800 02008KT 4SM -RA BR OVC010
     FM241000 02009KT P6SM OVC015
     FM241200 01010KT P6SM OVC035
     FM241800 03012KT P6SM SCT030=

USA.gov is the U.S. government's official web portal to all federal, state and local government web resources and services.